createdAt,value
2022-10-19T00:02:22.756Z,6.22
2022-10-19T00:04:49.647Z,6.38
2022-10-19T00:07:16.475Z,6.43
2022-10-19T00:09:44.489Z,6.30
2022-10-19T00:12:12.753Z,6.47
2022-10-19T00:14:39.500Z,6.13
2022-10-19T00:17:06.261Z,5.93
2022-10-19T00:19:32.987Z,6.05
2022-10-19T00:22:00.151Z,6.15
2022-10-19T00:24:27.043Z,6.72
2022-10-19T00:26:53.766Z,6.40
2022-10-19T00:29:20.523Z,6.22
2022-10-19T00:31:49.997Z,6.43
2022-10-19T00:34:17.038Z,6.63
2022-10-19T00:36:43.906Z,6.35
2022-10-19T00:39:15.480Z,6.50
2022-10-19T00:41:42.756Z,6.47
2022-10-19T00:44:12.398Z,6.00
2022-10-19T00:46:44.550Z,5.80
2022-10-19T00:49:16.129Z,6.35
2022-10-19T00:51:48.122Z,6.43
2022-10-19T00:54:15.869Z,6.10
2022-10-19T00:56:44.527Z,5.90
2022-10-19T00:59:13.443Z,6.40
2022-10-19T01:01:40.193Z,6.68
2022-10-19T01:04:06.881Z,6.82
2022-10-19T01:06:34.257Z,6.65
2022-10-19T01:09:01.001Z,6.95
2022-10-19T01:11:39.633Z,6.00
2022-10-19T01:14:31.217Z,6.25
2022-10-19T01:17:26.688Z,6.47
2022-10-19T01:19:59.660Z,6.82
2022-10-19T01:23:20.276Z,6.47
2022-10-19T01:26:18.960Z,6.78
2022-10-19T01:29:07.796Z,6.82
2022-10-19T01:31:47.178Z,6.72
2022-10-19T01:34:26.667Z,6.47
2022-10-19T01:37:06.642Z,5.97
2022-10-19T01:39:40.973Z,6.50
2022-10-19T01:42:28.717Z,6.18
2022-10-19T01:45:01.214Z,5.68
2022-10-19T01:47:55.696Z,5.85
2022-10-19T01:50:31.336Z,6.07
2022-10-19T01:52:59.530Z,5.28
2022-10-19T01:55:27.295Z,4.97
2022-10-19T01:58:06.126Z,6.35
2022-10-19T02:00:36.064Z,5.70
2022-10-19T02:03:04.349Z,5.72
2022-10-19T02:05:32.591Z,5.80
2022-10-19T02:08:10.160Z,5.13
2022-10-19T02:10:38.504Z,5.53
2022-10-19T02:13:06.274Z,5.60
2022-10-19T02:15:34.982Z,5.85
2022-10-19T02:18:02.889Z,5.63
2022-10-19T02:20:29.624Z,5.20
2022-10-19T02:22:56.676Z,5.93
2022-10-19T02:25:23.958Z,5.20
2022-10-19T02:27:50.665Z,5.35
2022-10-19T02:30:18.366Z,5.13
2022-10-19T02:32:45.293Z,4.55
2022-10-19T02:35:13.198Z,4.97
2022-10-19T02:37:40.524Z,5.07
2022-10-19T02:40:08.488Z,5.13
2022-10-19T02:42:47.130Z,5.88
2022-10-19T02:45:23.654Z,7.00
2022-10-19T02:48:03.684Z,9.55
2022-10-19T02:50:30.712Z,9.27
2022-10-19T02:52:58.870Z,8.60
2022-10-19T02:55:25.915Z,9.20
2022-10-19T02:57:53.723Z,8.90
2022-10-19T03:00:20.632Z,9.00
2022-10-19T03:02:48.208Z,7.90
2022-10-19T03:05:14.963Z,7.50
2022-10-19T03:07:42.289Z,7.93
2022-10-19T03:10:09.441Z,8.07
2022-10-19T03:12:36.177Z,8.70
2022-10-19T03:15:03.187Z,6.45
2022-10-19T03:17:29.892Z,9.68
2022-10-19T03:19:56.710Z,6.70
2022-10-19T03:22:23.427Z,7.63
2022-10-19T03:24:50.256Z,7.63
2022-10-19T03:27:16.954Z,7.40
2022-10-19T03:29:43.644Z,7.20
2022-10-19T03:32:10.347Z,6.57
2022-10-19T03:34:37.045Z,6.93
2022-10-19T03:37:03.735Z,6.80
2022-10-19T03:39:30.666Z,6.93
2022-10-19T03:41:57.391Z,7.57
2022-10-19T03:44:24.138Z,7.85
2022-10-19T03:46:50.881Z,8.18
2022-10-19T03:49:17.790Z,10.20
2022-10-19T03:51:44.622Z,8.30
2022-10-19T03:54:15.375Z,8.55
2022-10-19T03:56:42.656Z,8.35
2022-10-19T03:59:12.910Z,8.82
2022-10-19T04:01:42.101Z,8.80
2022-10-19T04:04:17.564Z,8.68
2022-10-19T04:06:46.520Z,9.13
2022-10-19T04:09:15.206Z,8.65
2022-10-19T04:11:42.525Z,9.02
2022-10-19T04:16:36.979Z,9.65
2022-10-19T04:19:04.037Z,9.05
2022-10-19T04:21:35.134Z,9.85
2022-10-19T04:24:07.441Z,9.48
2022-10-19T04:26:38.946Z,9.60
2022-10-19T04:29:05.742Z,8.82
2022-10-19T04:31:32.743Z,8.23
2022-10-19T04:33:59.411Z,9.00
2022-10-19T04:36:26.477Z,8.05
2022-10-19T04:38:53.200Z,8.20
2022-10-19T04:41:21.564Z,8.85
2022-10-19T04:43:49.083Z,9.23
2022-10-19T04:46:17.878Z,7.47
2022-10-19T04:48:45.646Z,8.45
2022-10-19T04:51:12.831Z,7.85
2022-10-19T04:53:40.423Z,8.25
2022-10-19T04:56:11.800Z,8.20
2022-10-19T04:58:38.584Z,8.10
2022-10-19T05:01:17.514Z,7.78
2022-10-19T05:03:44.778Z,7.78
2022-10-19T05:06:12.665Z,7.07
2022-10-19T05:08:39.418Z,6.30
2022-10-19T05:11:08.970Z,5.63
2022-10-19T05:13:36.097Z,6.72
2022-10-19T05:16:04.769Z,6.80
2022-10-19T05:18:31.841Z,5.95
2022-10-19T05:21:10.227Z,5.80
2022-10-19T05:23:37.448Z,6.50
2022-10-19T05:26:17.320Z,5.95
2022-10-19T05:28:56.210Z,6.32
2022-10-19T05:31:24.997Z,6.82
2022-10-19T05:33:51.739Z,6.63
2022-10-19T05:36:26.070Z,6.63
2022-10-19T05:38:54.435Z,8.85
2022-10-19T05:41:22.087Z,7.43
2022-10-19T05:43:52.930Z,7.80
2022-10-19T05:46:19.762Z,8.07
2022-10-19T05:48:47.001Z,8.93
2022-10-19T05:51:16.220Z,8.43
2022-10-19T05:53:42.999Z,7.88
2022-10-19T05:56:14.573Z,8.38
2022-10-19T05:58:41.263Z,8.98
2022-10-19T06:01:09.375Z,9.00
2022-10-19T06:03:36.214Z,8.55
2022-10-19T06:06:04.498Z,8.55
2022-10-19T06:08:31.189Z,8.95
2022-10-19T06:11:10.881Z,9.23
2022-10-19T06:13:38.334Z,8.75
2022-10-19T06:16:06.124Z,8.32
2022-10-19T06:18:33.171Z,9.15
2022-10-19T06:21:04.958Z,8.75
2022-10-19T06:23:32.920Z,9.00
2022-10-19T06:26:02.723Z,9.48
2022-10-19T06:28:29.481Z,9.82
2022-10-19T06:30:58.346Z,10.05
2022-10-19T06:33:26.020Z,9.70
2022-10-19T06:35:52.879Z,9.88
2022-10-19T06:38:19.706Z,11.40
2022-10-19T06:40:46.505Z,9.65
2022-10-19T06:43:13.223Z,10.50
2022-10-19T06:45:40.070Z,10.85
2022-10-19T06:48:07.823Z,10.70
2022-10-19T06:50:35.347Z,10.05
2022-10-19T06:53:02.058Z,10.68
2022-10-19T06:55:28.838Z,9.55
2022-10-19T06:57:55.553Z,9.30
2022-10-19T07:00:22.228Z,8.50
2022-10-19T07:02:48.897Z,10.25
2022-10-19T07:05:15.771Z,10.00
2022-10-19T07:07:42.534Z,9.80
2022-10-19T07:10:09.456Z,10.82
2022-10-19T07:12:36.154Z,10.90
2022-10-19T07:15:03.178Z,10.15
2022-10-19T07:17:29.893Z,10.65
2022-10-19T07:19:56.609Z,10.82
2022-10-19T07:22:27.207Z,10.68
2022-10-19T07:24:54.899Z,10.18
2022-10-19T07:27:21.659Z,10.55
2022-10-19T07:29:48.350Z,10.68
2022-10-19T07:32:15.042Z,11.10
2022-10-19T07:34:41.986Z,12.10
2022-10-19T07:37:08.691Z,10.40
2022-10-19T07:39:35.393Z,10.27
2022-10-19T07:42:02.193Z,10.30
2022-10-19T07:44:28.986Z,11.65
2022-10-19T07:46:55.786Z,10.63
2022-10-19T07:49:22.517Z,10.63
2022-10-19T07:51:53.808Z,11.07
2022-10-19T07:54:21.400Z,11.13
2022-10-19T07:56:48.131Z,11.02
2022-10-19T07:59:16.925Z,11.73
2022-10-19T08:01:44.990Z,11.02
2022-10-19T08:06:58.422Z,10.40
2022-10-19T08:09:51.617Z,9.93
2022-10-19T08:12:15.199Z,10.43
2022-10-19T08:14:42.317Z,10.27
2022-10-19T08:17:11.776Z,10.65
2022-10-19T08:19:43.091Z,9.95
2022-10-19T08:22:10.648Z,10.13
2022-10-19T08:24:37.415Z,10.32
2022-10-19T08:27:04.238Z,9.07
2022-10-19T08:29:31.733Z,10.43
2022-10-19T08:31:58.926Z,10.73
2022-10-19T08:34:25.663Z,9.93
2022-10-19T08:36:52.382Z,9.77
2022-10-19T08:39:19.086Z,10.00
2022-10-19T08:42:02.437Z,9.40
2022-10-19T08:45:10.832Z,10.75
2022-10-19T08:48:07.272Z,10.27
2022-10-19T08:50:42.714Z,10.80
2022-10-19T08:53:20.902Z,10.15
2022-10-19T08:56:04.463Z,10.30
2022-10-19T08:59:06.936Z,9.80
2022-10-19T09:01:44.524Z,9.00
2022-10-19T09:04:29.853Z,9.45
2022-10-19T09:07:15.273Z,9.93
2022-10-19T09:09:50.822Z,10.63
2022-10-19T09:12:20.558Z,9.98
2022-10-19T09:14:58.058Z,9.10
2022-10-19T09:17:25.356Z,8.95
2022-10-19T09:19:52.293Z,9.15
2022-10-19T09:22:33.267Z,9.82
2022-10-19T09:25:14.539Z,8.70
2022-10-19T09:27:43.462Z,10.20
2022-10-19T09:30:21.656Z,10.77
2022-10-19T09:33:01.787Z,10.10
2022-10-19T09:35:35.406Z,9.70
2022-10-19T09:38:03.917Z,10.45
2022-10-19T09:40:31.337Z,9.95
2022-10-19T09:42:59.233Z,10.93
2022-10-19T09:45:57.744Z,11.45
2022-10-19T09:48:35.708Z,10.43
2022-10-19T09:51:03.925Z,11.75
2022-10-19T09:53:30.690Z,11.05
2022-10-19T09:55:58.955Z,19.10
2022-10-19T09:58:32.085Z,11.60
2022-10-19T10:01:00.462Z,15.98
2022-10-19T10:03:32.701Z,12.63
2022-10-19T10:06:03.912Z,11.30
2022-10-19T10:08:33.888Z,10.88
2022-10-19T10:11:07.003Z,10.20
2022-10-19T10:13:37.914Z,9.23
2022-10-19T10:16:07.946Z,10.50
2022-10-19T10:18:57.099Z,11.00
2022-10-19T10:21:26.444Z,12.80
2022-10-19T10:24:00.689Z,9.93
2022-10-19T10:26:28.274Z,10.27
2022-10-19T10:28:57.866Z,10.52
2022-10-19T10:31:29.281Z,10.57
2022-10-19T10:34:10.766Z,10.27
2022-10-19T10:36:52.173Z,10.02
2022-10-19T10:39:18.977Z,9.40
2022-10-19T10:41:48.258Z,9.50
2022-10-19T10:44:20.022Z,10.85
2022-10-19T10:46:56.488Z,9.43
2022-10-19T10:49:37.481Z,9.25
2022-10-19T10:52:15.750Z,9.65
2022-10-19T10:55:16.061Z,9.65
2022-10-19T10:57:46.863Z,10.40
2022-10-19T11:00:21.824Z,9.75
2022-10-19T11:03:18.322Z,9.70
2022-10-19T11:05:48.333Z,10.27
2022-10-19T11:08:26.935Z,9.68
2022-10-19T11:11:04.844Z,10.45
2022-10-19T11:14:12.117Z,9.82
2022-10-19T11:16:41.210Z,10.93
2022-10-19T11:19:35.768Z,10.45
2022-10-19T11:22:17.169Z,10.33
2022-10-19T11:24:55.980Z,13.88
2022-10-19T11:27:32.077Z,12.00
2022-10-19T11:30:14.540Z,10.93
2022-10-19T11:32:53.419Z,12.65
2022-10-19T11:35:32.389Z,12.40
2022-10-19T11:38:27.420Z,10.60
2022-10-19T11:41:21.684Z,10.00
2022-10-19T11:44:13.336Z,10.52
2022-10-19T11:46:55.130Z,9.90
2022-10-19T11:49:40.501Z,10.38
2022-10-19T11:52:31.340Z,8.68
2022-10-19T11:55:07.341Z,9.05
2022-10-19T11:57:43.676Z,9.68
2022-10-19T12:00:15.418Z,10.23
2022-10-19T12:03:06.744Z,12.00
2022-10-19T12:05:54.617Z,8.43
2022-10-19T12:08:43.108Z,9.23
2022-10-19T12:11:43.836Z,8.43
2022-10-19T12:14:14.753Z,8.15
2022-10-19T12:16:49.626Z,8.18
2022-10-19T12:19:23.053Z,7.93
2022-10-19T12:21:50.960Z,7.72
2022-10-19T12:24:20.544Z,7.28
2022-10-19T12:26:48.034Z,6.82
2022-10-19T12:29:19.688Z,7.28
2022-10-19T12:31:47.153Z,7.85
2022-10-19T12:34:28.120Z,8.48
2022-10-19T12:37:09.767Z,8.52
2022-10-19T12:39:44.590Z,8.82
2022-10-19T12:42:31.642Z,7.05
2022-10-19T12:45:19.978Z,6.90
2022-10-19T12:48:15.648Z,5.57
2022-10-19T12:50:48.404Z,5.88
2022-10-19T12:53:28.281Z,4.75
2022-10-19T12:56:07.164Z,5.80
2022-10-19T12:58:47.463Z,4.97
2022-10-19T13:01:24.950Z,4.60
2022-10-19T13:04:06.151Z,4.82
2022-10-19T13:06:35.488Z,4.75
2022-10-19T13:09:08.045Z,4.30
2022-10-19T13:14:45.993Z,4.45
2022-10-19T13:17:51.854Z,3.75
2022-10-19T13:20:18.874Z,3.65
2022-10-19T13:22:51.041Z,3.92
2022-10-19T13:25:29.681Z,4.38
2022-10-19T13:28:22.589Z,3.90
2022-10-19T13:30:49.354Z,3.30
2022-10-19T13:33:28.559Z,4.10
2022-10-19T13:36:04.181Z,3.67
2022-10-19T13:38:41.513Z,3.85
2022-10-19T13:41:14.221Z,3.47
2022-10-19T13:44:06.879Z,5.88
2022-10-19T13:46:52.597Z,6.65
2022-10-19T13:49:53.510Z,4.78
2022-10-19T13:52:54.288Z,4.03
2022-10-19T13:55:48.063Z,5.35
2022-10-19T13:58:39.649Z,4.28
2022-10-19T14:01:23.787Z,5.20
2022-10-19T14:04:12.443Z,4.93
2022-10-19T14:06:56.339Z,5.30
2022-10-19T14:09:46.399Z,5.22
2022-10-19T14:12:23.765Z,4.72
2022-10-19T14:14:54.015Z,5.47
2022-10-19T14:17:27.661Z,5.53
2022-10-19T14:19:57.736Z,7.47
2022-10-19T14:22:36.158Z,5.95
2022-10-19T14:25:05.783Z,6.15
2022-10-19T14:27:33.845Z,5.30
2022-10-19T14:30:01.485Z,5.88
2022-10-19T14:32:30.073Z,6.85
2022-10-19T14:37:37.837Z,5.22
2022-10-19T14:40:08.272Z,5.60
2022-10-19T14:42:39.155Z,6.00
2022-10-19T14:45:12.572Z,5.07
2022-10-19T14:47:56.723Z,5.10
2022-10-19T14:50:28.926Z,5.57
2022-10-19T14:53:16.341Z,6.07
2022-10-19T14:55:43.350Z,5.65
2022-10-19T14:58:13.758Z,6.32
2022-10-19T15:00:40.780Z,5.40
2022-10-19T15:03:10.934Z,5.97
2022-10-19T15:05:42.033Z,5.38
2022-10-19T15:08:11.477Z,5.50
2022-10-19T15:10:45.675Z,5.75
2022-10-19T15:13:23.859Z,5.72
2022-10-19T15:15:52.584Z,8.30
2022-10-19T15:18:44.011Z,6.03
2022-10-19T15:21:14.575Z,7.55
2022-10-19T15:23:44.092Z,5.43
2022-10-19T15:26:26.856Z,4.78
2022-10-19T15:28:55.035Z,5.30
2022-10-19T15:31:25.704Z,4.72
2022-10-19T15:33:58.298Z,4.78
2022-10-19T15:36:25.752Z,4.78
2022-10-19T15:39:06.341Z,5.05
2022-10-19T15:41:45.505Z,4.55
2022-10-19T15:44:48.236Z,4.50
2022-10-19T15:47:14.978Z,4.65
2022-10-19T15:49:41.654Z,4.35
2022-10-19T15:52:16.704Z,4.95
2022-10-19T15:54:43.469Z,4.97
2022-10-19T15:57:29.584Z,5.45
2022-10-19T15:59:58.143Z,4.90
2022-10-19T16:02:25.354Z,5.47
2022-10-19T16:04:55.243Z,6.00
2022-10-19T16:07:27.259Z,5.50
2022-10-19T16:09:54.723Z,5.40
2022-10-19T16:12:22.460Z,5.45
2022-10-19T16:14:49.658Z,5.00
2022-10-19T16:17:16.719Z,5.35
2022-10-19T16:19:44.111Z,5.55
2022-10-19T16:22:12.755Z,4.95
2022-10-19T16:24:39.741Z,5.25
2022-10-19T16:27:06.688Z,5.53
2022-10-19T16:29:33.462Z,5.28
2022-10-19T16:32:00.421Z,5.43
2022-10-19T16:34:27.324Z,5.43
2022-10-19T16:36:54.476Z,5.03
2022-10-19T16:39:21.162Z,4.90
2022-10-19T16:41:47.856Z,5.90
2022-10-19T16:44:14.647Z,5.65
2022-10-19T16:46:41.407Z,5.43
2022-10-19T16:49:08.190Z,6.00
2022-10-19T16:51:37.017Z,5.30
2022-10-19T16:54:06.020Z,5.40
2022-10-19T16:56:33.437Z,5.53
2022-10-19T16:59:03.609Z,5.90
2022-10-19T17:01:31.323Z,5.15
2022-10-19T17:03:58.311Z,5.07
2022-10-19T17:06:25.595Z,5.90
2022-10-19T17:09:29.747Z,6.15
2022-10-19T17:11:40.471Z,5.68
2022-10-19T17:14:11.118Z,8.18
2022-10-19T17:16:38.517Z,6.90
2022-10-19T17:19:06.362Z,7.47
2022-10-19T17:21:37.282Z,7.35
2022-10-19T17:24:05.747Z,8.27
2022-10-19T17:26:38.820Z,7.38
2022-10-19T17:29:06.385Z,8.02
2022-10-19T17:31:33.116Z,7.75
2022-10-19T17:34:00.749Z,8.18
2022-10-19T17:36:30.709Z,6.97
2022-10-19T17:38:59.556Z,7.47
2022-10-19T17:41:27.188Z,7.10
2022-10-19T17:43:54.453Z,6.57
2022-10-19T17:46:29.476Z,6.55
2022-10-19T17:48:57.257Z,6.85
2022-10-19T17:51:29.279Z,6.85
2022-10-19T17:54:04.724Z,6.50
2022-10-19T17:56:32.053Z,7.15
2022-10-19T17:58:59.188Z,7.25
2022-10-19T18:01:26.896Z,7.05
2022-10-19T18:03:54.020Z,7.70
2022-10-19T18:06:26.312Z,7.40
2022-10-19T18:08:55.134Z,7.03
2022-10-19T18:11:24.693Z,6.70
2022-10-19T18:13:52.693Z,7.20
2022-10-19T18:16:30.913Z,7.32
2022-10-19T18:18:58.820Z,7.43
2022-10-19T18:21:28.524Z,8.00
2022-10-19T18:23:56.621Z,7.68
2022-10-19T18:26:25.342Z,7.97
2022-10-19T18:28:52.767Z,9.25
2022-10-19T18:31:25.079Z,9.15
2022-10-19T18:33:57.644Z,8.82
2022-10-19T18:36:24.775Z,8.90
2022-10-19T18:38:52.713Z,9.00
2022-10-19T18:41:19.998Z,8.65
2022-10-19T18:43:51.217Z,8.65
2022-10-19T18:46:19.634Z,7.85
2022-10-19T18:48:46.586Z,9.18
2022-10-19T18:51:15.403Z,8.63
2022-10-19T18:53:43.148Z,7.90
2022-10-19T18:56:11.776Z,8.13
2022-10-19T18:58:39.141Z,7.80
2022-10-19T19:01:14.510Z,8.07
2022-10-19T19:03:44.159Z,8.45
2022-10-19T19:06:13.748Z,7.00
2022-10-19T19:08:40.722Z,7.15
2022-10-19T19:11:11.281Z,7.18
2022-10-19T19:13:38.704Z,7.05
2022-10-19T19:16:06.103Z,6.95
2022-10-19T19:18:34.086Z,6.50
2022-10-19T19:21:05.486Z,7.50
2022-10-19T19:23:32.207Z,7.15
2022-10-19T19:25:58.915Z,8.63
2022-10-19T19:28:25.687Z,8.50
2022-10-19T19:30:52.376Z,8.77
2022-10-19T19:33:19.147Z,8.68
2022-10-19T19:35:47.709Z,7.72
2022-10-19T19:38:15.428Z,7.68
2022-10-19T19:40:44.274Z,7.97
2022-10-19T19:43:11.942Z,9.85
2022-10-19T19:45:39.632Z,8.82
2022-10-19T19:48:07.529Z,9.75
2022-10-19T19:50:34.828Z,11.27
2022-10-19T19:53:02.303Z,11.68
2022-10-19T19:55:30.441Z,11.52
2022-10-19T19:57:58.203Z,11.77
2022-10-19T20:00:25.152Z,11.35
2022-10-19T20:02:56.003Z,12.20
2022-10-19T20:05:23.268Z,10.98
2022-10-19T20:07:50.202Z,10.20
2022-10-19T20:10:17.092Z,10.45
2022-10-19T20:12:44.526Z,9.93
2022-10-19T20:15:12.440Z,10.00
2022-10-19T20:17:39.620Z,9.65
2022-10-19T20:20:07.557Z,9.50
2022-10-19T20:22:34.559Z,10.05
2022-10-19T20:25:01.383Z,10.20
2022-10-19T20:27:28.113Z,9.18
2022-10-19T20:29:58.736Z,9.38
2022-10-19T20:32:26.192Z,10.15
2022-10-19T20:34:53.389Z,9.52
2022-10-19T20:37:21.076Z,9.25
2022-10-19T20:39:48.412Z,9.23
2022-10-19T20:42:16.020Z,8.82
2022-10-19T20:44:43.615Z,8.93
2022-10-19T20:47:10.568Z,9.40
2022-10-19T20:49:37.415Z,8.57
2022-10-19T20:52:04.554Z,9.13
2022-10-19T20:54:31.368Z,8.82
2022-10-19T20:56:58.227Z,8.63
2022-10-19T20:59:27.825Z,8.50
2022-10-19T21:01:56.471Z,8.35
2022-10-19T21:04:24.789Z,9.10
2022-10-19T21:06:52.455Z,9.10
2022-10-19T21:09:21.859Z,8.75
2022-10-19T21:11:50.239Z,9.25
2022-10-19T21:14:25.305Z,8.18
2022-10-19T21:16:56.632Z,8.68
2022-10-19T21:19:25.403Z,9.23
2022-10-19T21:21:57.983Z,9.70
2022-10-19T21:24:27.214Z,9.30
2022-10-19T21:26:54.351Z,9.02
2022-10-19T21:29:21.352Z,10.60
2022-10-19T21:31:50.242Z,9.45
2022-10-19T21:34:25.063Z,10.07
2022-10-19T21:36:51.945Z,9.77
2022-10-19T21:39:19.526Z,11.02
2022-10-19T21:41:46.518Z,10.70
2022-10-19T21:44:15.026Z,10.23
2022-10-19T21:46:43.510Z,10.20
2022-10-19T21:49:13.383Z,10.65
2022-10-19T21:51:45.383Z,10.02
2022-10-19T21:54:17.467Z,11.27
2022-10-19T21:56:44.559Z,10.55
2022-10-19T21:59:12.130Z,10.63
2022-10-19T22:01:41.245Z,11.45
2022-10-19T22:04:16.358Z,11.27
2022-10-19T22:09:14.090Z,10.10
2022-10-19T22:11:40.961Z,10.98
2022-10-19T22:14:07.937Z,11.05
2022-10-19T22:16:36.640Z,10.68
2022-10-19T22:19:05.220Z,11.55
2022-10-19T22:21:33.194Z,10.70
2022-10-19T22:24:02.785Z,11.40
2022-10-19T22:26:32.013Z,10.57
2022-10-19T22:29:00.555Z,10.75
2022-10-19T22:31:28.449Z,10.88
2022-10-19T22:33:55.182Z,12.15
2022-10-19T22:36:22.101Z,11.85
2022-10-19T22:38:48.909Z,12.05
2022-10-19T22:41:15.598Z,11.30
2022-10-19T22:43:42.312Z,11.80
2022-10-19T22:46:09.089Z,12.68
2022-10-19T22:48:36.769Z,12.13
2022-10-19T22:51:03.602Z,11.48
2022-10-19T22:53:30.323Z,11.80
2022-10-19T22:55:57.013Z,12.75
2022-10-19T22:58:23.670Z,11.95
2022-10-19T23:01:08.578Z,12.20
2022-10-19T23:03:35.653Z,11.73
2022-10-19T23:06:02.392Z,11.98
2022-10-19T23:08:29.268Z,12.50
2022-10-19T23:10:56.018Z,12.60
2022-10-19T23:13:23.021Z,12.43
2022-10-19T23:15:50.769Z,12.98
2022-10-19T23:18:17.762Z,11.77
2022-10-19T23:20:53.669Z,11.52
2022-10-19T23:23:20.373Z,12.13
2022-10-19T23:26:16.648Z,11.60
2022-10-19T23:28:46.064Z,12.10
2022-10-19T23:31:15.134Z,11.75
2022-10-19T23:33:42.919Z,12.25
2022-10-19T23:36:20.158Z,12.43
2022-10-19T23:38:48.230Z,11.05
2022-10-19T23:41:15.790Z,12.40
2022-10-19T23:43:42.727Z,11.82
2022-10-19T23:46:09.545Z,11.80
2022-10-19T23:48:37.365Z,12.52
2022-10-19T23:51:10.494Z,11.88
2022-10-19T23:53:41.086Z,11.45
2022-10-19T23:56:14.192Z,11.90
2022-10-19T23:58:40.985Z,11.15
